Time;durP1;ratioP1;P1;durP2;ratioP2;P2;SDS_P1;SDS_P2;PMS_P1;PMS_P2;Temp;Humidity;BMP_temperature;BMP_pressure;BME280_temperature;BME280_humidity;BME280_pressure;Samples;Min_cycle;Max_cycle;Signal;HPM_P1;HPM_P2
2023/06/19 00:00:53;;;;;;;9.52;8.63;;;22.20;99.90;;;;;;5047938;28;20730;-42
2023/06/19 00:03:18;;;;;;;9.88;8.07;;;22.20;99.90;;;;;;5048878;28;20142;-40
2023/06/19 00:05:44;;;;;;;10.25;9.05;;;22.20;99.90;;;;;;5015903;28;20106;-41
2023/06/19 00:08:10;;;;;;;8.93;8.02;;;22.20;99.90;;;;;;5033824;28;20082;-42
2023/06/19 00:10:35;;;;;;;9.27;8.38;;;22.20;99.90;;;;;;5050953;28;20079;-41
2023/06/19 00:13:01;;;;;;;9.02;8.10;;;22.20;99.90;;;;;;5051651;28;20395;-39
2023/06/19 00:15:29;;;;;;;9.02;8.15;;;22.20;99.90;;;;;;5051467;28;20482;-43
2023/06/19 00:17:56;;;;;;;9.18;8.38;;;22.20;99.90;;;;;;5051270;28;20095;-40
2023/06/19 00:20:22;;;;;;;9.07;8.15;;;22.20;99.50;;;;;;5051724;28;20033;-43
2023/06/19 00:22:51;;;;;;;8.63;7.82;;;22.30;99.00;;;;;;5050946;28;20303;-42
2023/06/19 00:25:20;;;;;;;10.88;8.50;;;22.30;98.30;;;;;;5043745;28;20065;-41
2023/06/19 00:27:49;;;;;;;9.55;8.65;;;22.30;97.30;;;;;;5051803;28;20036;-36
2023/06/19 00:30:15;;;;;;;8.48;7.63;;;22.40;97.20;;;;;;5049936;28;20480;-40
2023/06/19 00:32:46;;;;;;;8.68;7.88;;;22.40;97.40;;;;;;5049669;28;20098;-37
2023/06/19 00:35:16;;;;;;;9.40;8.38;;;22.30;97.70;;;;;;5050169;28;20059;-35
2023/06/19 00:37:45;;;;;;;8.43;7.72;;;22.30;96.90;;;;;;5050398;28;20032;-35
2023/06/19 00:40:31;;;;;;;8.93;8.10;;;22.40;96.70;;;;;;5043898;28;20520;-36
2023/06/19 00:42:57;;;;;;;8.43;7.70;;;22.40;96.70;;;;;;5021113;28;20037;-37
2023/06/19 00:45:24;;;;;;;9.70;8.23;;;22.40;95.80;;;;;;5049895;28;20504;-35
2023/06/19 00:47:54;;;;;;;9.48;8.20;;;22.50;95.30;;;;;;5043602;28;20040;-35
2023/06/19 00:50:21;;;;;;;8.40;7.70;;;22.50;95.10;;;;;;5047525;28;20091;-36
2023/06/19 00:52:47;;;;;;;8.30;7.53;;;22.50;95.40;;;;;;5048343;28;20037;-35
2023/06/19 00:55:14;;;;;;;8.57;7.85;;;22.40;95.40;;;;;;5045091;28;20401;-35
2023/06/19 00:57:40;;;;;;;9.07;7.80;;;22.40;95.70;;;;;;5050093;28;20465;-37
2023/06/19 01:00:07;;;;;;;9.05;8.35;;;22.40;94.80;;;;;;5049131;28;20064;-35
2023/06/19 01:02:34;;;;;;;8.98;8.10;;;22.50;94.90;;;;;;5049121;28;20056;-39
2023/06/19 01:05:00;;;;;;;9.27;8.38;;;22.50;94.70;;;;;;5031359;28;20037;-35
2023/06/19 01:07:40;;;;;;;8.80;7.97;;;22.40;94.80;;;;;;5048701;28;20440;-37
2023/06/19 01:10:09;;;;;;;8.40;7.78;;;22.40;94.70;;;;;;5049873;28;20044;-38
2023/06/19 01:12:40;;;;;;;8.50;7.80;;;22.40;95.60;;;;;;5029265;28;20410;-35
2023/06/19 01:15:09;;;;;;;8.48;7.68;;;22.30;96.60;;;;;;5026616;28;20079;-35
2023/06/19 01:17:36;;;;;;;10.27;7.88;;;22.20;96.30;;;;;;5048896;28;20123;-38
2023/06/19 01:20:09;;;;;;;8.63;7.82;;;22.20;96.50;;;;;;5031238;28;20394;-35
2023/06/19 01:22:35;;;;;;;;;;;22.20;96.90;;;;;;5050916;28;20041;-37
2023/06/19 01:25:00;;;;;;;8.68;7.78;;;22.10;98.00;;;;;;5050093;28;19917;-38
2023/06/19 01:27:30;;;;;;;8.73;8.00;;;22.10;97.00;;;;;;5050023;28;20037;-35
2023/06/19 01:29:59;;;;;;;8.55;7.82;;;22.20;97.00;;;;;;5049437;28;20124;-38
2023/06/19 01:32:45;;;;;;;8.98;7.97;;;22.10;97.50;;;;;;5048041;28;20032;-38
2023/06/19 01:35:14;;;;;;;9.50;8.70;;;22.10;97.50;;;;;;5049913;28;20092;-36
2023/06/19 01:37:41;;;;;;;9.23;8.15;;;22.10;97.80;;;;;;5049530;28;20045;-36
2023/06/19 01:40:09;;;;;;;9.60;8.70;;;22.00;98.70;;;;;;5048024;28;20704;-35
2023/06/19 01:42:37;;;;;;;8.93;8.02;;;22.00;98.70;;;;;;5047702;28;20383;-36
2023/06/19 01:45:05;;;;;;;8.82;8.02;;;22.00;99.00;;;;;;5047314;28;20040;-37
2023/06/19 01:47:30;;;;;;;8.73;7.93;;;22.00;99.20;;;;;;5047265;28;20041;-37
2023/06/19 01:49:56;;;;;;;9.43;8.52;;;22.00;99.20;;;;;;5041639;28;20470;-36
2023/06/19 01:52:25;;;;;;;9.25;8.35;;;21.90;99.30;;;;;;5048162;28;20401;-36
2023/06/19 01:54:51;;;;;;;9.05;8.25;;;21.90;99.60;;;;;;5042356;28;20041;-38
2023/06/19 01:57:18;;;;;;;9.05;8.20;;;21.90;99.80;;;;;;5026274;28;20043;-36
2023/06/19 01:59:43;;;;;;;9.77;8.77;;;21.90;99.90;;;;;;5044978;28;20414;-35
2023/06/19 02:02:10;;;;;;;8.88;8.05;;;21.80;99.90;;;;;;5043368;28;20037;-38
2023/06/19 02:04:36;;;;;;;8.80;8.10;;;21.80;99.90;;;;;;5046769;28;20569;-39
2023/06/19 02:07:01;;;;;;;9.27;8.48;;;21.80;99.90;;;;;;5047822;28;20115;-36
2023/06/19 02:09:27;;;;;;;8.88;8.18;;;21.80;99.90;;;;;;5029864;28;20041;-38
2023/06/19 02:11:53;;;;;;;9.32;8.52;;;21.80;99.90;;;;;;5040470;28;20048;-39
2023/06/19 02:14:19;;;;;;;8.88;8.07;;;21.70;99.90;;;;;;5047617;28;20041;-35
2023/06/19 02:16:44;;;;;;;8.82;8.02;;;21.70;99.90;;;;;;5048794;28;20041;-37
2023/06/19 02:19:11;;;;;;;9.00;8.20;;;21.60;99.90;;;;;;5028641;28;20091;-36
2023/06/19 02:21:37;;;;;;;9.65;8.70;;;21.60;99.90;;;;;;5043204;28;20505;-36
2023/06/19 02:24:02;;;;;;;9.50;8.60;;;21.60;99.90;;;;;;5045723;28;20112;-35
2023/06/19 02:26:29;;;;;;;9.75;8.85;;;21.60;99.90;;;;;;5047671;28;20144;-36
2023/06/19 02:28:55;;;;;;;8.77;7.88;;;21.50;99.90;;;;;;5048139;28;20075;-36
2023/06/19 02:31:22;;;;;;;8.93;8.13;;;21.50;99.90;;;;;;5044780;28;20037;-36
2023/06/19 02:33:48;;;;;;;9.35;8.40;;;21.50;99.90;;;;;;5048112;28;20037;-39
2023/06/19 02:36:19;;;;;;;9.52;8.63;;;21.50;99.90;;;;;;5047907;28;20266;-39
2023/06/19 02:38:47;;;;;;;9.23;8.32;;;21.60;99.90;;;;;;5030255;28;20049;-35
2023/06/19 02:41:13;;;;;;;8.57;7.78;;;21.60;99.90;;;;;;5044075;28;20037;-36
2023/06/19 02:43:43;;;;;;;9.73;8.77;;;21.60;99.90;;;;;;5047773;28;20559;-37
2023/06/19 02:46:08;;;;;;;9.57;8.70;;;21.70;99.90;;;;;;5049301;28;20044;-34
2023/06/19 02:48:34;;;;;;;9.52;8.68;;;21.70;99.90;;;;;;5048552;28;20057;-36
2023/06/19 02:51:00;;;;;;;9.57;8.68;;;21.70;99.90;;;;;;5047824;28;20036;-35
2023/06/19 02:53:25;;;;;;;9.65;8.65;;;21.70;99.90;;;;;;5025980;28;20037;-36
2023/06/19 02:55:51;;;;;;;9.80;8.90;;;21.70;99.90;;;;;;5041301;28;20033;-36
2023/06/19 02:58:17;;;;;;;8.98;8.25;;;21.70;99.90;;;;;;5043916;28;20048;-35
2023/06/19 03:00:43;;;;;;;9.88;8.30;;;21.80;99.90;;;;;;5040443;28;20033;-36
2023/06/19 03:03:08;;;;;;;9.02;8.25;;;21.70;99.90;;;;;;5027164;28;20138;-34
2023/06/19 03:05:34;;;;;;;9.27;8.48;;;21.70;99.90;;;;;;5046532;28;20041;-36
2023/06/19 03:08:00;;;;;;;9.48;8.57;;;21.80;99.90;;;;;;5044575;28;20036;-36
2023/06/19 03:10:26;;;;;;;9.02;8.30;;;21.70;99.90;;;;;;5042137;28;20044;-37
2023/06/19 03:12:51;;;;;;;9.40;8.60;;;21.70;99.90;;;;;;5045484;28;20041;-36
2023/06/19 03:15:17;;;;;;;8.85;8.15;;;21.70;99.90;;;;;;5046477;28;20052;-37
2023/06/19 03:17:43;;;;;;;8.73;7.93;;;21.70;99.90;;;;;;5046886;28;20045;-36
2023/06/19 03:20:11;;;;;;;9.27;8.48;;;21.70;99.90;;;;;;5042086;28;20433;-37
2023/06/19 03:22:39;;;;;;;8.80;7.72;;;21.70;99.90;;;;;;5028414;28;20281;-34
2023/06/19 03:25:06;;;;;;;9.40;8.48;;;21.70;99.90;;;;;;5046367;28;20033;-35
2023/06/19 03:27:31;;;;;;;9.38;8.57;;;21.70;99.90;;;;;;5047556;28;20552;-36
2023/06/19 03:29:57;;;;;;;9.00;8.20;;;21.70;99.90;;;;;;5046576;28;20025;-37
2023/06/19 03:32:23;;;;;;;8.70;7.85;;;21.70;99.90;;;;;;5015813;28;20093;-37
2023/06/19 03:34:48;;;;;;;8.77;8.07;;;21.80;99.90;;;;;;5049533;28;20041;-38
2023/06/19 03:37:14;;;;;;;8.80;8.00;;;21.70;99.90;;;;;;5050586;28;20067;-41
2023/06/19 03:39:40;;;;;;;8.70;7.80;;;21.70;99.90;;;;;;5050527;28;20063;-39
2023/06/19 03:42:06;;;;;;;7.60;6.75;;;21.70;99.90;;;;;;5050268;28;20040;-42
2023/06/19 03:44:31;;;;;;;7.97;7.28;;;21.70;99.90;;;;;;5050541;28;20025;-41
2023/06/19 03:46:57;;;;;;;6.72;6.07;;;21.70;99.90;;;;;;5049323;28;20029;-42
2023/06/19 03:49:23;;;;;;;7.75;7.07;;;21.70;99.90;;;;;;5050138;28;20040;-42
2023/06/19 03:51:48;;;;;;;7.32;6.30;;;21.60;99.90;;;;;;5050188;28;20037;-39
2023/06/19 03:54:14;;;;;;;8.18;6.97;;;21.60;99.90;;;;;;5030477;28;20508;-39
2023/06/19 03:56:40;;;;;;;8.27;6.70;;;21.60;99.90;;;;;;5015976;28;20048;-42
2023/06/19 03:59:05;;;;;;;7.28;6.68;;;21.60;99.90;;;;;;5049762;28;20045;-39
2023/06/19 04:01:31;;;;;;;7.30;6.45;;;21.60;99.90;;;;;;5031356;28;20041;-42
2023/06/19 04:03:56;;;;;;;7.45;6.78;;;21.50;99.90;;;;;;5029939;28;20041;-39
2023/06/19 04:06:22;;;;;;;7.78;7.07;;;21.50;99.90;;;;;;5050414;28;20460;-38
2023/06/19 04:08:48;;;;;;;7.03;6.32;;;21.50;99.90;;;;;;5049614;28;20033;-41
2023/06/19 04:11:14;;;;;;;6.72;6.07;;;21.50;99.90;;;;;;5050346;28;20314;-41
2023/06/19 04:13:39;;;;;;;9.63;5.60;;;21.50;99.90;;;;;;5048049;28;20413;-43
2023/06/19 04:16:05;;;;;;;6.38;5.78;;;21.40;99.90;;;;;;5049850;28;20037;-41
2023/06/19 04:18:31;;;;;;;6.10;5.50;;;21.40;99.90;;;;;;5047851;28;20512;-39
2023/06/19 04:20:56;;;;;;;5.60;4.90;;;21.40;99.90;;;;;;5049080;28;20037;-40
2023/06/19 04:23:22;;;;;;;7.03;4.93;;;21.30;99.90;;;;;;5048968;28;20063;-42
2023/06/19 04:25:47;;;;;;;5.32;4.85;;;21.30;99.90;;;;;;5049952;28;20414;-40
2023/06/19 04:28:13;;;;;;;7.45;4.80;;;21.30;99.90;;;;;;5050148;28;20061;-40
2023/06/19 04:30:39;;;;;;;4.82;4.30;;;21.30;99.90;;;;;;5049148;28;20036;-39
2023/06/19 04:33:05;;;;;;;5.03;4.40;;;21.30;99.90;;;;;;5048891;28;20190;-40
2023/06/19 04:35:31;;;;;;;4.60;4.20;;;21.30;99.90;;;;;;5048412;28;20598;-39
2023/06/19 04:38:00;;;;;;;4.60;3.92;;;21.30;99.90;;;;;;5049580;28;20124;-39
2023/06/19 04:40:27;;;;;;;4.15;3.70;;;21.30;99.90;;;;;;5045398;28;20041;-41
2023/06/19 04:42:53;;;;;;;5.15;3.90;;;21.30;99.90;;;;;;5042004;28;20060;-42
2023/06/19 04:45:19;;;;;;;4.80;4.25;;;21.40;99.90;;;;;;5049332;28;20037;-38
2023/06/19 04:47:45;;;;;;;4.40;4.00;;;21.40;99.90;;;;;;5047520;28;20493;-41
2023/06/19 04:50:11;;;;;;;4.93;4.20;;;21.40;99.90;;;;;;5048883;28;20044;-42
2023/06/19 04:52:37;;;;;;;4.28;3.85;;;21.40;99.90;;;;;;5048834;28;20119;-41
2023/06/19 04:55:06;;;;;;;4.20;3.80;;;21.50;99.90;;;;;;5049275;28;20064;-40
2023/06/19 04:57:31;;;;;;;4.22;3.83;;;21.50;99.90;;;;;;5049289;28;20086;-37
2023/06/19 04:59:57;;;;;;;4.10;3.70;;;21.50;99.90;;;;;;5046374;28;20036;-40
2023/06/19 05:02:23;;;;;;;5.82;3.70;;;21.40;99.90;;;;;;5043168;28;20111;-42
2023/06/19 05:04:49;;;;;;;3.90;3.50;;;21.40;99.90;;;;;;5043068;28;20043;-42
2023/06/19 05:07:17;;;;;;;4.60;3.90;;;21.30;99.90;;;;;;5025415;28;20493;-42
2023/06/19 05:09:43;;;;;;;5.97;3.88;;;21.30;99.90;;;;;;5043125;28;20041;-43
2023/06/19 05:12:10;;;;;;;5.35;4.30;;;21.20;99.90;;;;;;5046313;28;20405;-37
2023/06/19 05:14:35;;;;;;;4.68;4.28;;;21.20;99.90;;;;;;5048800;28;20039;-41
2023/06/19 05:17:01;;;;;;;4.97;4.05;;;21.20;99.90;;;;;;5044412;28;20045;-43
2023/06/19 05:19:26;;;;;;;4.35;3.72;;;21.10;99.90;;;;;;5039892;28;20040;-42
2023/06/19 05:21:52;;;;;;;4.70;4.30;;;21.10;99.90;;;;;;5019611;28;20041;-41
2023/06/19 05:24:18;;;;;;;4.53;4.10;;;21.10;99.90;;;;;;5043375;28;20498;-38
2023/06/19 05:26:43;;;;;;;4.57;4.18;;;21.10;99.90;;;;;;5026880;28;20491;-42
2023/06/19 05:29:09;;;;;;;4.63;4.22;;;21.10;99.90;;;;;;5046835;28;20037;-41
2023/06/19 05:31:35;;;;;;;5.10;4.60;;;21.10;99.90;;;;;;5044873;28;20047;-40
2023/06/19 05:34:01;;;;;;;4.57;4.18;;;21.20;99.90;;;;;;5048038;28;20044;-42
2023/06/19 05:36:26;;;;;;;5.07;4.30;;;21.20;99.90;;;;;;5043389;28;20040;-40
2023/06/19 05:38:52;;;;;;;5.18;4.32;;;21.20;99.90;;;;;;5048197;28;20033;-39
2023/06/19 05:41:18;;;;;;;4.85;4.20;;;21.30;99.90;;;;;;5044988;28;20048;-41
2023/06/19 05:43:43;;;;;;;5.05;4.55;;;21.30;99.90;;;;;;5045338;28;20036;-40
2023/06/19 05:46:09;;;;;;;4.35;3.92;;;21.40;99.90;;;;;;5043062;28;20036;-39
2023/06/19 05:48:34;;;;;;;6.13;4.10;;;21.40;99.90;;;;;;5049093;28;20102;-41
2023/06/19 05:51:00;;;;;;;5.45;4.95;;;21.50;99.90;;;;;;5044219;28;20030;-42
2023/06/19 05:53:26;;;;;;;5.85;4.60;;;21.60;99.90;;;;;;5041591;28;20032;-42
2023/06/19 05:55:51;;;;;;;5.07;4.38;;;21.60;99.90;;;;;;5046445;28;20060;-42
2023/06/19 05:58:19;;;;;;;4.85;4.40;;;21.70;99.90;;;;;;5030996;28;20040;-42
2023/06/19 06:00:46;;;;;;;5.65;4.30;;;21.80;99.90;;;;;;5048543;28;20067;-39
2023/06/19 06:03:13;;;;;;;4.47;4.13;;;21.90;99.90;;;;;;5043833;28;20600;-41
2023/06/19 06:05:39;;;;;;;4.63;4.22;;;22.00;99.90;;;;;;5044477;28;20064;-42
2023/06/19 06:08:04;;;;;;;5.95;4.47;;;22.00;99.90;;;;;;5045773;28;20068;-43
2023/06/19 06:10:30;;;;;;;5.93;4.18;;;22.00;99.90;;;;;;5048847;28;20029;-42
2023/06/19 06:12:56;;;;;;;4.78;4.38;;;22.10;99.90;;;;;;5044201;28;20067;-38
2023/06/19 06:15:22;;;;;;;5.10;4.60;;;22.10;99.90;;;;;;5044850;28;20567;-41
2023/06/19 06:17:47;;;;;;;7.63;4.72;;;22.10;99.90;;;;;;5050151;28;20048;-38
2023/06/19 06:20:13;;;;;;;4.60;4.10;;;21.90;99.90;;;;;;5050025;28;20064;-36
2023/06/19 06:22:39;;;;;;;5.35;4.80;;;21.90;99.90;;;;;;5015572;28;20120;-36
2023/06/19 06:25:05;;;;;;;4.25;3.95;;;22.00;99.90;;;;;;5050403;28;20037;-39
2023/06/19 06:27:31;;;;;;;5.07;4.68;;;22.00;99.90;;;;;;5050077;28;20063;-36
2023/06/19 06:29:57;;;;;;;5.50;4.32;;;22.10;99.90;;;;;;5049779;28;20482;-34
2023/06/19 06:32:23;;;;;;;5.90;5.40;;;22.20;99.90;;;;;;5050228;28;20052;-38
2023/06/19 06:34:48;;;;;;;5.55;5.05;;;22.30;99.90;;;;;;5049971;28;20039;-33
2023/06/19 06:37:16;;;;;;;5.38;4.88;;;22.40;99.90;;;;;;5050278;28;20132;-36
2023/06/19 06:39:42;;;;;;;6.78;5.10;;;22.40;99.90;;;;;;5050063;28;20137;-43
2023/06/19 06:42:07;;;;;;;7.53;5.60;;;22.50;99.90;;;;;;5047659;28;20073;-39
2023/06/19 06:44:33;;;;;;;6.57;5.82;;;22.40;99.90;;;;;;5047011;28;20032;-36
2023/06/19 06:46:59;;;;;;;6.30;5.72;;;22.30;99.90;;;;;;5050000;28;20087;-37
2023/06/19 06:49:24;;;;;;;6.82;5.80;;;22.30;99.90;;;;;;5047492;28;20044;-36
2023/06/19 06:51:50;;;;;;;6.45;5.95;;;22.20;99.90;;;;;;5048710;28;20040;-36
2023/06/19 06:54:15;;;;;;;6.43;5.80;;;22.30;99.90;;;;;;5046129;28;20540;-37
2023/06/19 06:56:41;;;;;;;7.65;6.30;;;22.30;99.90;;;;;;5042611;28;20050;-39
2023/06/19 06:59:07;;;;;;;6.78;6.07;;;22.20;99.90;;;;;;5045296;28;20033;-38
2023/06/19 07:01:32;;;;;;;6.50;5.88;;;22.20;99.90;;;;;;5047144;28;20499;-37
2023/06/19 07:03:58;;;;;;;7.18;6.30;;;22.20;99.90;;;;;;5046991;28;20069;-36
2023/06/19 07:06:24;;;;;;;7.95;5.68;;;22.10;99.90;;;;;;5050254;28;20032;-38
2023/06/19 07:08:49;;;;;;;6.57;5.93;;;22.20;99.90;;;;;;5051110;28;20025;-41
2023/06/19 07:11:15;;;;;;;7.05;6.35;;;22.20;99.90;;;;;;5051849;28;20072;-36
2023/06/19 07:13:41;;;;;;;8.80;6.80;;;22.20;99.90;;;;;;5032136;28;20121;-35
2023/06/19 07:16:07;;;;;;;7.47;6.78;;;22.20;99.90;;;;;;5051761;28;20029;-35
2023/06/19 07:18:35;;;;;;;8.30;5.85;;;22.10;99.90;;;;;;5050613;28;20033;-36
2023/06/19 07:21:01;;;;;;;7.07;6.32;;;22.00;99.90;;;;;;5044396;28;20037;-38
2023/06/19 07:23:27;;;;;;;6.18;5.68;;;21.80;99.90;;;;;;5050256;28;20041;-38
2023/06/19 07:25:52;;;;;;;6.40;5.82;;;21.80;99.90;;;;;;5050548;28;20131;-37
2023/06/19 07:28:18;;;;;;;6.05;5.47;;;21.70;99.90;;;;;;5043416;28;20037;-35
2023/06/19 07:30:45;;;;;;;6.80;6.10;;;21.70;99.90;;;;;;5049237;28;20571;-40
2023/06/19 07:33:10;;;;;;;6.78;6.07;;;21.70;99.90;;;;;;5049405;28;20041;-39
2023/06/19 07:35:36;;;;;;;7.03;5.90;;;21.80;99.90;;;;;;5049275;28;20040;-40
2023/06/19 07:38:01;;;;;;;6.88;6.28;;;21.90;99.90;;;;;;5044917;28;20509;-36
2023/06/19 07:40:27;;;;;;;6.28;5.68;;;21.90;99.90;;;;;;5050364;28;20064;-35
2023/06/19 07:42:53;;;;;;;7.32;6.63;;;22.00;99.90;;;;;;5047954;28;20079;-37
2023/06/19 07:45:18;;;;;;;7.68;5.93;;;22.00;99.90;;;;;;5051030;28;20439;-37
2023/06/19 07:47:53;;;;;;;6.32;5.72;;;21.90;99.90;;;;;;5043802;28;20033;-37
2023/06/19 07:50:18;;;;;;;6.85;6.25;;;22.00;99.90;;;;;;5044805;28;20033;-38
2023/06/19 07:52:44;;;;;;;6.78;6.18;;;21.90;99.90;;;;;;5014740;28;20547;-35
2023/06/19 07:55:09;;;;;;;6.20;5.70;;;21.80;99.90;;;;;;5048728;28;20037;-35
2023/06/19 07:57:35;;;;;;;7.03;6.05;;;21.90;99.90;;;;;;5050072;28;20504;-37
2023/06/19 08:00:07;;;;;;;6.82;6.22;;;21.90;99.90;;;;;;5045872;28;20037;-36
2023/06/19 08:02:32;;;;;;;7.32;6.10;;;22.00;99.90;;;;;;5049344;28;20073;-35
2023/06/19 08:04:58;;;;;;;6.32;5.72;;;22.00;99.90;;;;;;5044563;28;20073;-37
2023/06/19 08:07:24;;;;;;;6.80;6.00;;;22.10;99.90;;;;;;5050433;28;20040;-39
2023/06/19 08:09:49;;;;;;;6.80;6.20;;;22.10;99.90;;;;;;5048674;28;20037;-36
2023/06/19 08:12:15;;;;;;;7.50;6.80;;;22.20;99.90;;;;;;5040383;28;20037;-36
2023/06/19 08:14:40;;;;;;;8.70;8.10;;;22.30;99.90;;;;;;5046440;28;20116;-35
2023/06/19 08:17:06;;;;;;;9.40;8.63;;;22.50;99.90;;;;;;5050977;28;20029;-36
2023/06/19 08:19:32;;;;;;;9.98;9.07;;;22.50;99.90;;;;;;5051390;28;20040;-35
2023/06/19 08:21:58;;;;;;;9.38;7.93;;;22.50;99.90;;;;;;5051811;28;20041;-36
2023/06/19 08:24:24;;;;;;;8.77;7.88;;;22.50;99.90;;;;;;5051165;28;20029;-36
2023/06/19 08:26:51;;;;;;;7.03;6.13;;;22.50;99.90;;;;;;5051484;28;20047;-36
2023/06/19 08:29:18;;;;;;;7.05;6.43;;;22.40;99.90;;;;;;5033406;28;20041;-38
2023/06/19 08:31:44;;;;;;;7.53;6.75;;;22.30;99.90;;;;;;5050192;28;20045;-41
2023/06/19 08:34:10;;;;;;;7.50;6.65;;;22.30;99.90;;;;;;5044532;28;20040;-39
2023/06/19 08:36:36;;;;;;;7.80;7.10;;;22.40;99.90;;;;;;5048469;28;20301;-35
2023/06/19 08:39:02;;;;;;;7.50;6.90;;;22.30;99.90;;;;;;5045517;28;20037;-40
2023/06/19 08:41:28;;;;;;;7.22;6.63;;;22.40;99.90;;;;;;5030809;28;20477;-38
2023/06/19 08:43:54;;;;;;;8.00;7.30;;;22.60;99.90;;;;;;5049135;28;20076;-37
2023/06/19 08:46:20;;;;;;;7.30;6.57;;;22.60;99.90;;;;;;5013881;28;20044;-36
2023/06/19 08:48:46;;;;;;;8.27;6.50;;;22.50;99.90;;;;;;5049512;28;20028;-38
2023/06/19 08:51:13;;;;;;;7.20;6.60;;;22.40;99.90;;;;;;5048832;28;20422;-39
2023/06/19 08:53:54;;;;;;;7.60;6.85;;;22.40;99.90;;;;;;5043889;28;20044;-37
2023/06/19 08:56:20;;;;;;;7.85;7.15;;;22.40;99.90;;;;;;5027731;28;20032;-36
2023/06/19 08:58:46;;;;;;;9.25;6.68;;;22.50;99.90;;;;;;5048949;28;20029;-38
2023/06/19 09:01:17;;;;;;;7.85;7.10;;;22.50;99.90;;;;;;5042054;28;20073;-35
2023/06/19 09:03:44;;;;;;;8.10;7.45;;;22.60;99.90;;;;;;5047288;28;20057;-36
2023/06/19 09:06:09;;;;;;;9.68;8.95;;;22.80;99.90;;;;;;5031647;28;20029;-38
2023/06/19 09:08:35;;;;;;;11.20;10.13;;;22.90;99.90;;;;;;5049506;28;20502;-35
2023/06/19 09:11:02;;;;;;;9.52;8.70;;;22.90;99.90;;;;;;5042909;28;20391;-36
2023/06/19 09:13:29;;;;;;;9.82;8.73;;;23.10;99.90;;;;;;5042117;28;20040;-35
2023/06/19 09:16:02;;;;;;;12.35;8.77;;;23.10;99.90;;;;;;5044731;28;20056;-38
2023/06/19 09:18:42;;;;;;;9.98;9.00;;;23.30;99.90;;;;;;5030299;28;20482;-36
2023/06/19 09:21:16;;;;;;;9.85;9.05;;;23.50;99.90;;;;;;5048685;28;20049;-39
2023/06/19 09:23:42;;;;;;;9.82;9.13;;;23.90;99.90;;;;;;5047694;28;20052;-35
2023/06/19 09:26:07;;;;;;;9.65;8.85;;;24.00;99.90;;;;;;5047783;28;20492;-35
2023/06/19 09:28:33;;;;;;;12.77;10.05;;;24.10;99.90;;;;;;5047187;28;20033;-38
2023/06/19 09:31:05;;;;;;;10.20;9.30;;;24.10;99.90;;;;;;5048488;28;20036;-38
2023/06/19 09:33:33;;;;;;;10.20;9.23;;;24.30;99.90;;;;;;5047140;28;20139;-36
2023/06/19 09:36:00;;;;;;;10.52;9.68;;;24.50;99.90;;;;;;5048509;28;20075;-35
2023/06/19 09:38:28;;;;;;;10.00;9.13;;;24.60;99.90;;;;;;5039002;28;20037;-35
2023/06/19 09:40:56;;;;;;;10.73;9.73;;;24.80;99.90;;;;;;5047582;28;20033;-38
2023/06/19 09:43:38;;;;;;;10.00;9.20;;;25.10;99.90;;;;;;5044583;28;20393;-37
2023/06/19 09:46:05;;;;;;;11.15;10.05;;;25.40;99.90;;;;;;5042620;28;20036;-37
2023/06/19 09:48:34;;;;;;;10.65;9.75;;;25.30;99.90;;;;;;5048462;28;20461;-36
2023/06/19 09:51:22;;;;;;;12.07;10.95;;;25.00;99.90;;;;;;5042906;28;20044;-36
2023/06/19 09:53:50;;;;;;;10.95;10.05;;;24.70;99.90;;;;;;5037478;28;20497;-40
2023/06/19 09:56:21;;;;;;;10.73;9.82;;;24.70;99.90;;;;;;5044476;28;20041;-40
2023/06/19 09:58:50;;;;;;;10.77;9.80;;;24.70;99.90;;;;;;5040587;28;20043;-36
2023/06/19 10:01:19;;;;;;;10.10;9.30;;;24.90;99.90;;;;;;5030183;28;20039;-36
2023/06/19 10:03:45;;;;;;;8.13;7.53;;;25.10;99.90;;;;;;5047648;28;20072;-38
2023/06/19 10:06:16;;;;;;;6.70;5.93;;;25.30;99.90;;;;;;5014248;28;20075;-37
2023/06/19 10:08:43;;;;;;;7.32;6.65;;;25.70;99.90;;;;;;5042156;28;20044;-35
2023/06/19 10:11:10;;;;;;;7.30;6.30;;;25.70;99.90;;;;;;5048302;28;20029;-40
2023/06/19 10:13:40;;;;;;;6.35;5.80;;;25.50;99.90;;;;;;5047499;28;20403;-39
2023/06/19 10:16:22;;;;;;;5.72;5.25;;;25.40;99.90;;;;;;5048095;28;20029;-42
2023/06/19 10:18:48;;;;;;;6.55;5.95;;;25.70;99.90;;;;;;5047112;28;20048;-36
2023/06/19 10:21:18;;;;;;;6.53;5.57;;;25.80;99.90;;;;;;5047634;28;21422;-41
2023/06/19 10:23:56;;;;;;;6.57;5.53;;;25.80;99.90;;;;;;5047603;28;20036;-37
2023/06/19 10:26:33;;;;;;;9.15;6.20;;;25.60;99.90;;;;;;5029376;28;20460;-37
2023/06/19 10:28:59;;;;;;;7.07;6.38;;;25.30;99.90;;;;;;5046531;28;20068;-36
2023/06/19 10:31:25;;;;;;;7.80;7.03;;;25.40;99.90;;;;;;5047715;28;20087;-40
2023/06/19 10:33:51;;;;;;;7.13;6.43;;;25.40;99.90;;;;;;5042008;28;20067;-40
2023/06/19 10:36:25;;;;;;;9.25;7.93;;;25.50;99.90;;;;;;5040169;28;20036;-37
2023/06/19 10:38:52;;;;;;;8.85;8.02;;;25.60;99.90;;;;;;5046506;28;20108;-39
2023/06/19 10:41:25;;;;;;;9.55;8.60;;;25.60;99.90;;;;;;5030524;28;20052;-36
2023/06/19 10:43:59;;;;;;;8.93;8.05;;;25.90;99.90;;;;;;5051258;28;20063;-35
2023/06/19 10:46:33;;;;;;;9.00;8.00;;;26.00;99.90;;;;;;5050033;28;20041;-40
2023/06/19 10:49:04;;;;;;;11.73;7.75;;;26.20;99.90;;;;;;5051572;28;20064;-39
2023/06/19 10:51:50;;;;;;;9.15;8.25;;;26.50;99.90;;;;;;5033536;28;20433;-38
2023/06/19 10:54:16;;;;;;;10.77;9.43;;;26.90;95.30;;;;;;5050449;28;20033;-37
2023/06/19 10:56:43;;;;;;;9.15;8.27;;;26.70;97.90;;;;;;5051285;28;20082;-37
2023/06/19 10:59:11;;;;;;;8.00;7.25;;;26.50;97.60;;;;;;5051252;28;20032;-35
2023/06/19 11:01:39;;;;;;;8.93;7.45;;;26.60;97.70;;;;;;5035077;28;20045;-38
2023/06/19 11:04:09;;;;;;;8.95;8.13;;;26.70;96.40;;;;;;5046211;28;20287;-36
2023/06/19 11:06:36;;;;;;;8.30;7.47;;;26.90;95.80;;;;;;5048237;28;20406;-36
2023/06/19 11:09:04;;;;;;;7.70;7.00;;;26.90;94.90;;;;;;5049241;28;20068;-36
2023/06/19 11:11:45;;;;;;;7.97;7.18;;;27.00;94.70;;;;;;5050546;28;20106;-40
2023/06/19 11:14:12;;;;;;;14.65;7.72;;;27.50;94.00;;;;;;5049114;28;20068;-36
2023/06/19 11:16:46;;;;;;;12.43;7.70;;;27.10;92.70;;;;;;5050772;28;20512;-40
2023/06/19 11:19:19;;;;;;;7.30;6.60;;;26.90;92.40;;;;;;5041834;28;20043;-39
2023/06/19 11:21:50;;;;;;;6.88;6.20;;;26.90;92.10;;;;;;5026404;28;20084;-39
2023/06/19 11:24:17;;;;;;;8.35;6.32;;;27.20;91.20;;;;;;5049904;28;20487;-41
2023/06/19 11:26:49;;;;;;;7.63;5.47;;;27.30;90.60;;;;;;5032374;28;20083;-39
2023/06/19 11:29:22;;;;;;;13.00;7.40;;;27.50;89.40;;;;;;5049632;28;20031;-37
2023/06/19 11:31:48;;;;;;;8.98;6.75;;;27.40;85.70;;;;;;5050019;28;20124;-37
2023/06/19 11:34:16;;;;;;;7.28;6.57;;;27.20;86.20;;;;;;5050162;28;20045;-37
2023/06/19 11:36:42;;;;;;;7.95;7.13;;;27.30;86.10;;;;;;5047524;28;20044;-38
2023/06/19 11:39:13;;;;;;;7.93;7.13;;;27.20;87.20;;;;;;5045953;28;20108;-37
2023/06/19 11:41:39;;;;;;;8.60;7.70;;;27.20;86.40;;;;;;5031299;28;20406;-42
2023/06/19 11:44:06;;;;;;;8.55;7.75;;;27.30;85.60;;;;;;5049354;28;20462;-40
2023/06/19 11:46:34;;;;;;;8.35;7.47;;;27.40;85.70;;;;;;5044809;28;20048;-41
2023/06/19 11:49:12;;;;;;;7.82;7.15;;;28.00;85.00;;;;;;5047335;28;20052;-41
2023/06/19 11:51:37;;;;;;;8.65;7.82;;;28.40;81.00;;;;;;5046054;28;20048;-39
2023/06/19 11:54:06;;;;;;;10.40;8.02;;;28.10;80.50;;;;;;5048460;28;20502;-39
2023/06/19 11:56:32;;;;;;;7.82;7.13;;;28.30;79.50;;;;;;5050071;28;20033;-38
2023/06/19 11:58:57;;;;;;;8.90;7.93;;;28.50;78.80;;;;;;5045729;28;20452;-43
2023/06/19 12:01:23;;;;;;;8.85;7.97;;;28.70;77.20;;;;;;5044065;28;20033;-37
2023/06/19 12:03:49;;;;;;;10.98;8.13;;;29.00;75.60;;;;;;5039724;28;20090;-40
2023/06/19 12:06:17;;;;;;;8.35;7.43;;;28.90;74.10;;;;;;5044556;28;20033;-37
2023/06/19 12:08:43;;;;;;;8.38;7.65;;;28.80;73.90;;;;;;5046031;28;20298;-37
2023/06/19 12:11:13;;;;;;;10.15;9.15;;;28.60;74.30;;;;;;5043958;28;20395;-36
2023/06/19 12:13:42;;;;;;;10.88;7.80;;;28.70;73.30;;;;;;5049192;28;20118;-42
2023/06/19 12:16:11;;;;;;;9.15;7.78;;;28.30;74.10;;;;;;5045977;28;20517;-43
2023/06/19 12:18:37;;;;;;;9.20;8.30;;;28.10;74.30;;;;;;5050054;28;20072;-43
2023/06/19 12:21:03;;;;;;;7.82;6.80;;;27.80;74.40;;;;;;5032186;28;20118;-38
2023/06/19 12:23:28;;;;;;;11.88;8.52;;;27.70;76.00;;;;;;5043285;28;20063;-37
2023/06/19 12:25:54;;;;;;;9.95;8.27;;;27.70;76.20;;;;;;5049956;28;20120;-39
2023/06/19 12:28:21;;;;;;;9.75;8.38;;;27.60;76.10;;;;;;5055453;28;20033;-40
2023/06/19 12:30:49;;;;;;;8.88;8.02;;;27.50;75.20;;;;;;5051849;28;20502;-40
2023/06/19 12:33:15;;;;;;;8.45;7.65;;;27.60;75.10;;;;;;5031661;28;20080;-39
2023/06/19 12:35:41;;;;;;;8.90;8.05;;;27.60;74.70;;;;;;5051120;28;20114;-39
2023/06/19 12:38:07;;;;;;;9.27;8.38;;;27.50;74.30;;;;;;5050636;28;20171;-37
2023/06/19 12:40:33;;;;;;;10.48;9.52;;;27.40;74.40;;;;;;5045005;28;20061;-36
2023/06/19 12:42:59;;;;;;;10.85;9.75;;;27.10;74.50;;;;;;5047167;28;20563;-34
2023/06/19 12:45:25;;;;;;;9.93;8.60;;;27.00;75.20;;;;;;5052158;28;20029;-34